Cainhoy, South Carolina
Current Conditions -  °F | °C
As of 8:56 AM on Tuesday 27 Jan 2015 (Local Time) from KCHS Reporting Station
Clear Clear  
Wind Chill: 31°   Ceiling: Unl
Heat Index: 38°   Visibility: 10mi
Dew Point: 28°   Wind: 10mph
Humidity: 68%   Direction: 310°NW
Pressure: 29.88"   Gusts: 20mph
Location:  32.9577°N, 79.8822°W
Report Text: KCHS 271356Z 31009G17KT 10SM CLR 03/M02 A2988 RMK AO2 SLP118 T00331022
Loading
Personal Weather Stations






























Interactive Weather Map New forecast layout! Learn more

10-Day Weather Forecast

Advertisements
Track Severe Weather on mobile